sensor_id;sensor_type;location;lat;lon;timestamp;P1;durP1;ratioP1;P2;durP2;ratioP2
68375;SDS011;55318;52.068;5.188;2024-03-17T00:00:04;8.81;;;3.9;;
68375;SDS011;55318;52.068;5.188;2024-03-17T00:01:42;11.3;;;5.4;;
68375;SDS011;55318;52.068;5.188;2024-03-17T00:03:18;8.0;;;4.5;;
68375;SDS011;55318;52.068;5.188;2024-03-17T00:06:30;11.2;;;4.5;;
68375;SDS011;55318;52.068;5.188;2024-03-17T00:08:07;11.2;;;4.41;;
68375;SDS011;55318;52.068;5.188;2024-03-17T00:09:43;7.7;;;4.2;;
68375;SDS011;55318;52.068;5.188;2024-03-17T00:12:57;8.5;;;4.8;;
68375;SDS011;55318;52.068;5.188;2024-03-17T00:14:34;8.71;;;4.7;;
68375;SDS011;55318;52.068;5.188;2024-03-17T00:16:13;9.81;;;4.91;;
68375;SDS011;55318;52.068;5.188;2024-03-17T00:17:49;16.2;;;5.4;;
68375;SDS011;55318;52.068;5.188;2024-03-17T00:21:01;9.1;;;4.61;;
68375;SDS011;55318;52.068;5.188;2024-03-17T00:22:38;11.3;;;4.8;;
68375;SDS011;55318;52.068;5.188;2024-03-17T00:24:14;10.21;;;5.0;;
68375;SDS011;55318;52.068;5.188;2024-03-17T00:27:26;9.4;;;5.3;;
68375;SDS011;55318;52.068;5.188;2024-03-17T00:29:02;6.5;;;4.41;;
68375;SDS011;55318;52.068;5.188;2024-03-17T00:30:38;10.7;;;4.61;;
68375;SDS011;55318;52.068;5.188;2024-03-17T00:33:51;9.1;;;4.41;;
68375;SDS011;55318;52.068;5.188;2024-03-17T00:35:28;8.2;;;4.3;;
68375;SDS011;55318;52.068;5.188;2024-03-17T00:37:04;10.4;;;4.7;;
68375;SDS011;55318;52.068;5.188;2024-03-17T00:38:40;9.81;;;5.4;;
68375;SDS011;55318;52.068;5.188;2024-03-17T00:41:53;13.1;;;5.2;;
68375;SDS011;55318;52.068;5.188;2024-03-17T00:43:29;8.6;;;5.11;;
68375;SDS011;55318;52.068;5.188;2024-03-17T00:45:05;10.7;;;5.2;;
68375;SDS011;55318;52.068;5.188;2024-03-17T00:48:19;12.7;;;4.91;;
68375;SDS011;55318;52.068;5.188;2024-03-17T00:49:56;10.4;;;5.11;;
68375;SDS011;55318;52.068;5.188;2024-03-17T00:51:32;10.21;;;5.4;;
68375;SDS011;55318;52.068;5.188;2024-03-17T00:54:46;10.21;;;5.2;;
68375;SDS011;55318;52.068;5.188;2024-03-17T00:56:23;9.81;;;5.5;;
68375;SDS011;55318;52.068;5.188;2024-03-17T00:58:00;7.6;;;4.8;;
68375;SDS011;55318;52.068;5.188;2024-03-17T00:59:36;11.1;;;5.5;;
68375;SDS011;55318;52.068;5.188;2024-03-17T01:04:25;16.61;;;5.7;;
68375;SDS011;55318;52.068;5.188;2024-03-17T01:06:02;11.1;;;5.6;;
68375;SDS011;55318;52.068;5.188;2024-03-17T01:09:15;11.9;;;5.6;;
68375;SDS011;55318;52.068;5.188;2024-03-17T01:10:51;11.4;;;5.7;;
68375;SDS011;55318;52.068;5.188;2024-03-17T01:12:27;11.9;;;5.8;;
68375;SDS011;55318;52.068;5.188;2024-03-17T01:15:39;12.0;;;5.9;;
68375;SDS011;55318;52.068;5.188;2024-03-17T01:17:15;10.1;;;5.7;;
68375;SDS011;55318;52.068;5.188;2024-03-17T01:18:51;11.9;;;5.8;;
68375;SDS011;55318;52.068;5.188;2024-03-17T01:22:04;10.4;;;5.7;;
68375;SDS011;55318;52.068;5.188;2024-03-17T01:23:41;14.8;;;6.1;;
68375;SDS011;55318;52.068;5.188;2024-03-17T01:25:18;14.0;;;5.7;;
68375;SDS011;55318;52.068;5.188;2024-03-17T01:26:54;8.71;;;5.2;;
68375;SDS011;55318;52.068;5.188;2024-03-17T01:30:06;9.81;;;5.2;;
68375;SDS011;55318;52.068;5.188;2024-03-17T01:31:44;8.1;;;5.11;;
68375;SDS011;55318;52.068;5.188;2024-03-17T01:33:20;10.4;;;5.11;;
68375;SDS011;55318;52.068;5.188;2024-03-17T01:36:32;8.6;;;5.9;;
68375;SDS011;55318;52.068;5.188;2024-03-17T01:38:09;9.81;;;6.5;;
68375;SDS011;55318;52.068;5.188;2024-03-17T01:39:46;10.8;;;5.9;;
68375;SDS011;55318;52.068;5.188;2024-03-17T01:42:59;10.3;;;5.4;;
68375;SDS011;55318;52.068;5.188;2024-03-17T01:44:35;9.5;;;5.11;;
68375;SDS011;55318;52.068;5.188;2024-03-17T01:46:13;9.4;;;5.4;;
68375;SDS011;55318;52.068;5.188;2024-03-17T01:47:52;10.4;;;5.4;;
68375;SDS011;55318;52.068;5.188;2024-03-17T01:51:06;14.0;;;5.8;;
68375;SDS011;55318;52.068;5.188;2024-03-17T01:52:46;9.21;;;5.5;;
68375;SDS011;55318;52.068;5.188;2024-03-17T01:54:24;9.71;;;5.4;;
68375;SDS011;55318;52.068;5.188;2024-03-17T01:57:39;10.6;;;5.7;;
68375;SDS011;55318;52.068;5.188;2024-03-17T01:59:16;9.31;;;5.9;;
68375;SDS011;55318;52.068;5.188;2024-03-17T02:00:53;10.7;;;5.9;;
68375;SDS011;55318;52.068;5.188;2024-03-17T02:02:29;9.9;;;5.11;;
68375;SDS011;55318;52.068;5.188;2024-03-17T02:05:42;10.4;;;5.4;;
68375;SDS011;55318;52.068;5.188;2024-03-17T02:07:19;8.1;;;5.11;;
68375;SDS011;55318;52.068;5.188;2024-03-17T02:08:55;7.3;;;5.2;;
68375;SDS011;55318;52.068;5.188;2024-03-17T02:12:07;8.5;;;5.3;;
68375;SDS011;55318;52.068;5.188;2024-03-17T02:13:44;12.2;;;5.4;;
68375;SDS011;55318;52.068;5.188;2024-03-17T02:15:21;9.1;;;5.8;;
68375;SDS011;55318;52.068;5.188;2024-03-17T02:18:35;10.8;;;5.4;;
68375;SDS011;55318;52.068;5.188;2024-03-17T02:20:11;11.0;;;5.6;;
68375;SDS011;55318;52.068;5.188;2024-03-17T02:21:48;10.6;;;5.5;;
68375;SDS011;55318;52.068;5.188;2024-03-17T02:23:24;7.8;;;5.3;;
68375;SDS011;55318;52.068;5.188;2024-03-17T02:26:39;10.6;;;5.6;;
68375;SDS011;55318;52.068;5.188;2024-03-17T02:28:15;13.3;;;5.8;;
68375;SDS011;55318;52.068;5.188;2024-03-17T02:29:51;9.71;;;5.4;;
68375;SDS011;55318;52.068;5.188;2024-03-17T02:33:03;7.8;;;4.8;;
68375;SDS011;55318;52.068;5.188;2024-03-17T02:34:39;9.4;;;5.9;;
68375;SDS011;55318;52.068;5.188;2024-03-17T02:36:16;7.4;;;4.5;;
68375;SDS011;55318;52.068;5.188;2024-03-17T02:39:28;8.81;;;4.8;;
68375;SDS011;55318;52.068;5.188;2024-03-17T02:41:05;8.9;;;5.11;;
68375;SDS011;55318;52.068;5.188;2024-03-17T02:42:41;8.71;;;5.8;;
68375;SDS011;55318;52.068;5.188;2024-03-17T02:44:17;12.4;;;5.5;;
68375;SDS011;55318;52.068;5.188;2024-03-17T02:47:29;10.0;;;5.5;;
68375;SDS011;55318;52.068;5.188;2024-03-17T02:49:05;9.81;;;4.91;;
68375;SDS011;55318;52.068;5.188;2024-03-17T02:50:41;11.6;;;4.91;;
68375;SDS011;55318;52.068;5.188;2024-03-17T02:53:54;11.2;;;5.4;;
68375;SDS011;55318;52.068;5.188;2024-03-17T02:55:30;10.7;;;5.2;;
68375;SDS011;55318;52.068;5.188;2024-03-17T02:57:06;9.81;;;4.91;;
68375;SDS011;55318;52.068;5.188;2024-03-17T03:00:20;9.6;;;5.0;;
68375;SDS011;55318;52.068;5.188;2024-03-17T03:01:56;11.4;;;5.2;;
68375;SDS011;55318;52.068;5.188;2024-03-17T03:03:35;10.3;;;5.0;;
68375;SDS011;55318;52.068;5.188;2024-03-17T03:05:11;9.5;;;5.0;;
68375;SDS011;55318;52.068;5.188;2024-03-17T03:08:24;9.9;;;5.3;;
68375;SDS011;55318;52.068;5.188;2024-03-17T03:10:00;12.0;;;5.2;;
68375;SDS011;55318;52.068;5.188;2024-03-17T03:11:37;10.21;;;5.6;;
68375;SDS011;55318;52.068;5.188;2024-03-17T03:14:49;8.2;;;5.4;;
68375;SDS011;55318;52.068;5.188;2024-03-17T03:16:26;12.1;;;5.11;;
68375;SDS011;55318;52.068;5.188;2024-03-17T03:18:02;10.1;;;5.4;;
68375;SDS011;55318;52.068;5.188;2024-03-17T03:21:16;7.7;;;5.11;;
68375;SDS011;55318;52.068;5.188;2024-03-17T03:22:52;8.81;;;5.4;;
68375;SDS011;55318;52.068;5.188;2024-03-17T03:24:28;11.3;;;5.6;;
68375;SDS011;55318;52.068;5.188;2024-03-17T03:26:04;7.7;;;5.5;;
68375;SDS011;55318;52.068;5.188;2024-03-17T03:29:16;9.1;;;5.11;;
68375;SDS011;55318;52.068;5.188;2024-03-17T03:30:52;11.4;;;5.3;;
68375;SDS011;55318;52.068;5.188;2024-03-17T03:32:28;11.4;;;5.3;;
68375;SDS011;55318;52.068;5.188;2024-03-17T03:35:41;9.5;;;5.11;;
68375;SDS011;55318;52.068;5.188;2024-03-17T03:37:17;14.8;;;5.5;;
68375;SDS011;55318;52.068;5.188;2024-03-17T03:38:54;9.6;;;5.3;;
68375;SDS011;55318;52.068;5.188;2024-03-17T03:42:07;10.4;;;6.0;;
68375;SDS011;55318;52.068;5.188;2024-03-17T03:43:43;6.6;;;5.11;;
68375;SDS011;55318;52.068;5.188;2024-03-17T03:45:19;9.5;;;5.11;;
68375;SDS011;55318;52.068;5.188;2024-03-17T03:48:31;7.3;;;5.4;;
68375;SDS011;55318;52.068;5.188;2024-03-17T03:50:08;11.9;;;5.8;;
68375;SDS011;55318;52.068;5.188;2024-03-17T03:51:45;10.6;;;5.7;;
68375;SDS011;55318;52.068;5.188;2024-03-17T03:53:21;10.0;;;6.3;;
68375;SDS011;55318;52.068;5.188;2024-03-17T03:56:36;9.81;;;5.5;;
68375;SDS011;55318;52.068;5.188;2024-03-17T03:58:12;9.5;;;5.6;;
68375;SDS011;55318;52.068;5.188;2024-03-17T03:59:48;9.21;;;5.9;;
68375;SDS011;55318;52.068;5.188;2024-03-17T04:03:01;13.3;;;6.4;;
68375;SDS011;55318;52.068;5.188;2024-03-17T04:04:37;10.3;;;5.6;;
68375;SDS011;55318;52.068;5.188;2024-03-17T04:06:13;11.4;;;6.2;;
68375;SDS011;55318;52.068;5.188;2024-03-17T04:09:25;8.5;;;5.6;;
68375;SDS011;55318;52.068;5.188;2024-03-17T04:11:01;9.21;;;6.1;;
68375;SDS011;55318;52.068;5.188;2024-03-17T04:12:39;9.81;;;6.0;;
68375;SDS011;55318;52.068;5.188;2024-03-17T04:14:16;11.3;;;5.7;;
68375;SDS011;55318;52.068;5.188;2024-03-17T04:17:28;9.71;;;5.8;;
68375;SDS011;55318;52.068;5.188;2024-03-17T04:19:05;12.2;;;5.7;;
68375;SDS011;55318;52.068;5.188;2024-03-17T04:20:41;9.81;;;6.1;;
68375;SDS011;55318;52.068;5.188;2024-03-17T04:23:55;9.5;;;6.4;;
68375;SDS011;55318;52.068;5.188;2024-03-17T04:25:31;8.0;;;6.2;;
68375;SDS011;55318;52.068;5.188;2024-03-17T04:27:08;9.4;;;6.4;;
68375;SDS011;55318;52.068;5.188;2024-03-17T04:30:20;12.8;;;7.0;;
68375;SDS011;55318;52.068;5.188;2024-03-17T04:31:56;9.4;;;6.6;;
68375;SDS011;55318;52.068;5.188;2024-03-17T04:33:32;9.31;;;5.9;;
68375;SDS011;55318;52.068;5.188;2024-03-17T04:35:09;11.2;;;6.1;;
68375;SDS011;55318;52.068;5.188;2024-03-17T04:38:21;9.0;;;6.3;;
68375;SDS011;55318;52.068;5.188;2024-03-17T04:39:58;10.6;;;6.0;;
68375;SDS011;55318;52.068;5.188;2024-03-17T04:41:34;8.9;;;6.0;;
68375;SDS011;55318;52.068;5.188;2024-03-17T04:44:48;10.0;;;6.4;;
68375;SDS011;55318;52.068;5.188;2024-03-17T04:46:24;10.0;;;6.4;;
68375;SDS011;55318;52.068;5.188;2024-03-17T04:48:00;10.7;;;6.1;;
68375;SDS011;55318;52.068;5.188;2024-03-17T04:51:14;12.9;;;6.9;;
68375;SDS011;55318;52.068;5.188;2024-03-17T04:52:51;8.6;;;6.2;;
68375;SDS011;55318;52.068;5.188;2024-03-17T04:54:28;9.5;;;6.4;;
68375;SDS011;55318;52.068;5.188;2024-03-17T04:56:06;10.5;;;6.9;;
68375;SDS011;55318;52.068;5.188;2024-03-17T04:59:20;8.71;;;6.2;;
68375;SDS011;55318;52.068;5.188;2024-03-17T05:00:57;10.1;;;6.4;;
68375;SDS011;55318;52.068;5.188;2024-03-17T05:02:33;10.21;;;6.3;;
68375;SDS011;55318;52.068;5.188;2024-03-17T05:05:45;12.8;;;6.4;;
68375;SDS011;55318;52.068;5.188;2024-03-17T05:07:22;9.9;;;6.6;;
68375;SDS011;55318;52.068;5.188;2024-03-17T05:08:58;10.3;;;6.7;;
68375;SDS011;55318;52.068;5.188;2024-03-17T05:12:10;9.81;;;6.2;;
68375;SDS011;55318;52.068;5.188;2024-03-17T05:13:46;9.31;;;6.2;;
68375;SDS011;55318;52.068;5.188;2024-03-17T05:15:22;12.5;;;7.1;;
68375;SDS011;55318;52.068;5.188;2024-03-17T05:16:59;10.5;;;6.2;;
68375;SDS011;55318;52.068;5.188;2024-03-17T05:20:12;9.31;;;6.7;;
68375;SDS011;55318;52.068;5.188;2024-03-17T05:21:49;11.1;;;6.4;;
68375;SDS011;55318;52.068;5.188;2024-03-17T05:23:25;10.5;;;6.2;;
68375;SDS011;55318;52.068;5.188;2024-03-17T05:26:39;9.0;;;5.9;;
68375;SDS011;55318;52.068;5.188;2024-03-17T05:28:16;11.7;;;6.3;;
68375;SDS011;55318;52.068;5.188;2024-03-17T05:29:53;11.2;;;6.8;;
68375;SDS011;55318;52.068;5.188;2024-03-17T05:33:05;9.1;;;6.2;;
68375;SDS011;55318;52.068;5.188;2024-03-17T05:34:42;9.6;;;6.3;;
68375;SDS011;55318;52.068;5.188;2024-03-17T05:36:18;8.9;;;5.8;;
68375;SDS011;55318;52.068;5.188;2024-03-17T05:37:54;13.8;;;6.1;;
68375;SDS011;55318;52.068;5.188;2024-03-17T05:41:06;11.3;;;6.1;;
68375;SDS011;55318;52.068;5.188;2024-03-17T05:42:44;10.6;;;6.3;;
68375;SDS011;55318;52.068;5.188;2024-03-17T05:44:20;7.4;;;5.7;;
68375;SDS011;55318;52.068;5.188;2024-03-17T05:47:34;11.2;;;6.4;;
68375;SDS011;55318;52.068;5.188;2024-03-17T05:49:10;10.3;;;6.6;;
68375;SDS011;55318;52.068;5.188;2024-03-17T05:50:48;9.5;;;5.9;;
68375;SDS011;55318;52.068;5.188;2024-03-17T05:54:00;10.1;;;6.0;;
68375;SDS011;55318;52.068;5.188;2024-03-17T05:55:36;11.7;;;6.2;;
68375;SDS011;55318;52.068;5.188;2024-03-17T05:57:13;9.6;;;6.7;;
68375;SDS011;55318;52.068;5.188;2024-03-17T05:58:49;9.6;;;6.2;;
68375;SDS011;55318;52.068;5.188;2024-03-17T06:02:02;9.4;;;6.1;;
68375;SDS011;55318;52.068;5.188;2024-03-17T06:03:39;11.4;;;6.7;;
68375;SDS011;55318;52.068;5.188;2024-03-17T06:05:16;10.21;;;6.1;;
68375;SDS011;55318;52.068;5.188;2024-03-17T06:08:28;9.9;;;6.7;;
68375;SDS011;55318;52.068;5.188;2024-03-17T06:10:05;12.7;;;6.1;;
68375;SDS011;55318;52.068;5.188;2024-03-17T06:11:42;12.4;;;6.7;;
68375;SDS011;55318;52.068;5.188;2024-03-17T06:14:55;10.9;;;6.0;;
68375;SDS011;55318;52.068;5.188;2024-03-17T06:16:31;8.71;;;5.9;;
68375;SDS011;55318;52.068;5.188;2024-03-17T06:18:09;11.1;;;7.0;;
68375;SDS011;55318;52.068;5.188;2024-03-17T06:19:48;8.31;;;5.7;;
68375;SDS011;55318;52.068;5.188;2024-03-17T06:23:00;8.4;;;5.7;;
68375;SDS011;55318;52.068;5.188;2024-03-17T06:24:37;13.8;;;7.1;;
68375;SDS011;55318;52.068;5.188;2024-03-17T06:26:14;10.7;;;6.0;;
68375;SDS011;55318;52.068;5.188;2024-03-17T06:29:27;9.0;;;6.5;;
68375;SDS011;55318;52.068;5.188;2024-03-17T06:31:05;8.5;;;5.9;;
68375;SDS011;55318;52.068;5.188;2024-03-17T06:32:42;9.71;;;6.3;;
68375;SDS011;55318;52.068;5.188;2024-03-17T06:34:19;11.8;;;6.8;;
68375;SDS011;55318;52.068;5.188;2024-03-17T06:37:31;8.6;;;6.2;;
68375;SDS011;55318;52.068;5.188;2024-03-17T06:39:07;11.2;;;6.2;;
68375;SDS011;55318;52.068;5.188;2024-03-17T06:40:47;9.31;;;6.2;;
68375;SDS011;55318;52.068;5.188;2024-03-17T06:44:01;11.6;;;6.3;;
68375;SDS011;55318;52.068;5.188;2024-03-17T06:45:39;11.3;;;6.6;;
68375;SDS011;55318;52.068;5.188;2024-03-17T06:47:16;9.31;;;6.6;;
68375;SDS011;55318;52.068;5.188;2024-03-17T06:50:29;10.8;;;6.3;;
68375;SDS011;55318;52.068;5.188;2024-03-17T06:52:05;11.3;;;6.6;;
68375;SDS011;55318;52.068;5.188;2024-03-17T06:53:42;8.81;;;6.0;;
68375;SDS011;55318;52.068;5.188;2024-03-17T06:55:18;10.5;;;6.3;;
68375;SDS011;55318;52.068;5.188;2024-03-17T06:58:31;9.4;;;6.9;;
68375;SDS011;55318;52.068;5.188;2024-03-17T07:00:07;9.21;;;6.5;;
68375;SDS011;55318;52.068;5.188;2024-03-17T07:01:44;9.5;;;6.8;;
68375;SDS011;55318;52.068;5.188;2024-03-17T07:05:00;10.8;;;7.0;;
68375;SDS011;55318;52.068;5.188;2024-03-17T07:06:36;10.4;;;6.8;;
68375;SDS011;55318;52.068;5.188;2024-03-17T07:08:12;13.9;;;7.4;;
68375;SDS011;55318;52.068;5.188;2024-03-17T07:11:25;11.1;;;7.2;;
68375;SDS011;55318;52.068;5.188;2024-03-17T07:13:01;12.5;;;7.3;;
68375;SDS011;55318;52.068;5.188;2024-03-17T07:14:37;13.7;;;6.3;;
68375;SDS011;55318;52.068;5.188;2024-03-17T07:16:13;11.6;;;6.8;;
68375;SDS011;55318;52.068;5.188;2024-03-17T07:19:26;11.4;;;7.4;;
68375;SDS011;55318;52.068;5.188;2024-03-17T07:21:04;10.6;;;7.0;;
68375;SDS011;55318;52.068;5.188;2024-03-17T07:22:41;10.6;;;7.1;;
68375;SDS011;55318;52.068;5.188;2024-03-17T07:25:54;10.9;;;7.3;;
68375;SDS011;55318;52.068;5.188;2024-03-17T07:27:30;9.5;;;6.9;;
68375;SDS011;55318;52.068;5.188;2024-03-17T07:29:06;10.5;;;7.2;;
68375;SDS011;55318;52.068;5.188;2024-03-17T07:32:23;13.5;;;7.4;;
68375;SDS011;55318;52.068;5.188;2024-03-17T07:34:00;9.4;;;7.1;;
68375;SDS011;55318;52.068;5.188;2024-03-17T07:35:45;11.2;;;7.2;;
68375;SDS011;55318;52.068;5.188;2024-03-17T07:37:22;11.1;;;7.5;;
68375;SDS011;55318;52.068;5.188;2024-03-17T07:40:35;11.4;;;7.3;;
68375;SDS011;55318;52.068;5.188;2024-03-17T07:42:11;12.4;;;7.2;;
68375;SDS011;55318;52.068;5.188;2024-03-17T07:43:47;11.6;;;7.1;;
68375;SDS011;55318;52.068;5.188;2024-03-17T07:47:00;10.9;;;6.7;;
68375;SDS011;55318;52.068;5.188;2024-03-17T07:48:37;11.8;;;7.3;;
68375;SDS011;55318;52.068;5.188;2024-03-17T07:50:15;10.0;;;7.7;;
68375;SDS011;55318;52.068;5.188;2024-03-17T07:51:51;10.3;;;6.7;;
68375;SDS011;55318;52.068;5.188;2024-03-17T07:55:06;10.4;;;7.1;;
68375;SDS011;55318;52.068;5.188;2024-03-17T07:56:43;11.3;;;7.9;;
68375;SDS011;55318;52.068;5.188;2024-03-17T07:58:20;10.1;;;7.3;;
68375;SDS011;55318;52.068;5.188;2024-03-17T08:01:32;11.0;;;7.0;;
68375;SDS011;55318;52.068;5.188;2024-03-17T08:03:09;9.5;;;6.6;;
68375;SDS011;55318;52.068;5.188;2024-03-17T08:04:45;9.81;;;7.0;;
68375;SDS011;55318;52.068;5.188;2024-03-17T08:06:21;10.21;;;6.8;;
68375;SDS011;55318;52.068;5.188;2024-03-17T08:09:34;10.8;;;6.4;;
68375;SDS011;55318;52.068;5.188;2024-03-17T08:11:11;11.4;;;6.7;;
68375;SDS011;55318;52.068;5.188;2024-03-17T08:12:48;12.3;;;7.2;;
68375;SDS011;55318;52.068;5.188;2024-03-17T08:16:01;10.6;;;7.1;;
68375;SDS011;55318;52.068;5.188;2024-03-17T08:17:38;9.6;;;6.4;;
68375;SDS011;55318;52.068;5.188;2024-03-17T08:19:15;10.8;;;6.7;;
68375;SDS011;55318;52.068;5.188;2024-03-17T08:22:28;10.9;;;7.0;;
68375;SDS011;55318;52.068;5.188;2024-03-17T08:24:05;10.6;;;6.8;;
68375;SDS011;55318;52.068;5.188;2024-03-17T08:25:42;10.0;;;7.1;;
68375;SDS011;55318;52.068;5.188;2024-03-17T08:27:27;11.6;;;7.1;;
68375;SDS011;55318;52.068;5.188;2024-03-17T08:30:39;12.2;;;7.0;;
68375;SDS011;55318;52.068;5.188;2024-03-17T08:33:51;9.81;;;7.0;;
68375;SDS011;55318;52.068;5.188;2024-03-17T08:37:03;8.9;;;6.5;;
68375;SDS011;55318;52.068;5.188;2024-03-17T08:38:40;11.0;;;6.7;;
68375;SDS011;55318;52.068;5.188;2024-03-17T08:40:17;9.4;;;6.6;;
68375;SDS011;55318;52.068;5.188;2024-03-17T08:43:31;10.8;;;6.7;;
68375;SDS011;55318;52.068;5.188;2024-03-17T08:45:08;10.8;;;6.7;;
68375;SDS011;55318;52.068;5.188;2024-03-17T08:46:47;9.1;;;6.5;;
68375;SDS011;55318;52.068;5.188;2024-03-17T08:48:24;9.21;;;7.1;;
68375;SDS011;55318;52.068;5.188;2024-03-17T08:51:37;10.8;;;7.0;;
68375;SDS011;55318;52.068;5.188;2024-03-17T08:53:14;9.81;;;6.7;;
68375;SDS011;55318;52.068;5.188;2024-03-17T08:54:50;10.1;;;6.6;;
68375;SDS011;55318;52.068;5.188;2024-03-17T08:58:03;10.9;;;6.4;;
68375;SDS011;55318;52.068;5.188;2024-03-17T08:59:40;9.31;;;6.2;;
68375;SDS011;55318;52.068;5.188;2024-03-17T09:01:16;11.0;;;7.0;;
68375;SDS011;55318;52.068;5.188;2024-03-17T09:02:53;10.0;;;6.6;;
68375;SDS011;55318;52.068;5.188;2024-03-17T09:06:13;9.81;;;7.1;;
68375;SDS011;55318;52.068;5.188;2024-03-17T09:07:50;8.9;;;6.5;;
68375;SDS011;55318;52.068;5.188;2024-03-17T09:09:26;9.0;;;6.3;;
68375;SDS011;55318;52.068;5.188;2024-03-17T09:12:48;8.9;;;6.2;;
68375;SDS011;55318;52.068;5.188;2024-03-17T09:14:25;11.6;;;6.3;;
68375;SDS011;55318;52.068;5.188;2024-03-17T09:16:01;9.0;;;6.1;;
68375;SDS011;55318;52.068;5.188;2024-03-17T09:17:38;9.31;;;6.1;;
68375;SDS011;55318;52.068;5.188;2024-03-17T09:20:56;9.81;;;6.0;;
68375;SDS011;55318;52.068;5.188;2024-03-17T09:22:33;8.71;;;6.2;;
68375;SDS011;55318;52.068;5.188;2024-03-17T09:24:09;10.21;;;6.0;;
68375;SDS011;55318;52.068;5.188;2024-03-17T09:27:30;9.21;;;6.1;;
68375;SDS011;55318;52.068;5.188;2024-03-17T09:29:08;9.4;;;6.3;;
68375;SDS011;55318;52.068;5.188;2024-03-17T09:30:46;8.9;;;6.0;;
68375;SDS011;55318;52.068;5.188;2024-03-17T09:32:24;8.4;;;5.7;;
68375;SDS011;55318;52.068;5.188;2024-03-17T09:35:36;8.31;;;5.7;;
68375;SDS011;55318;52.068;5.188;2024-03-17T09:37:13;9.1;;;6.3;;
68375;SDS011;55318;52.068;5.188;2024-03-17T09:38:49;8.1;;;5.7;;
68375;SDS011;55318;52.068;5.188;2024-03-17T09:42:02;8.0;;;5.5;;
68375;SDS011;55318;52.068;5.188;2024-03-17T09:43:40;9.21;;;6.0;;
68375;SDS011;55318;52.068;5.188;2024-03-17T09:45:18;8.6;;;5.6;;
68375;SDS011;55318;52.068;5.188;2024-03-17T09:46:56;7.6;;;5.4;;
68375;SDS011;55318;52.068;5.188;2024-03-17T09:50:13;10.4;;;5.5;;
68375;SDS011;55318;52.068;5.188;2024-03-17T09:51:49;9.0;;;5.9;;
68375;SDS011;55318;52.068;5.188;2024-03-17T09:53:31;7.4;;;5.4;;
68375;SDS011;55318;52.068;5.188;2024-03-17T09:55:09;11.2;;;6.4;;
68375;SDS011;55318;52.068;5.188;2024-03-17T09:58:28;10.6;;;5.9;;
68375;SDS011;55318;52.068;5.188;2024-03-17T10:00:06;9.5;;;6.3;;
68375;SDS011;55318;52.068;5.188;2024-03-17T10:01:47;9.4;;;5.6;;
68375;SDS011;55318;52.068;5.188;2024-03-17T10:05:22;8.81;;;5.7;;
68375;SDS011;55318;52.068;5.188;2024-03-17T10:07:00;8.81;;;5.7;;
68375;SDS011;55318;52.068;5.188;2024-03-17T10:08:39;11.0;;;6.2;;
68375;SDS011;55318;52.068;5.188;2024-03-17T10:10:17;6.6;;;5.3;;
68375;SDS011;55318;52.068;5.188;2024-03-17T10:11:56;9.6;;;5.7;;
68375;SDS011;55318;52.068;5.188;2024-03-17T10:15:10;8.1;;;5.8;;
68375;SDS011;55318;52.068;5.188;2024-03-17T10:16:48;8.0;;;4.8;;
68375;SDS011;55318;52.068;5.188;2024-03-17T10:18:25;9.0;;;5.7;;
68375;SDS011;55318;52.068;5.188;2024-03-17T10:21:57;9.5;;;5.5;;
68375;SDS011;55318;52.068;5.188;2024-03-17T10:23:35;8.5;;;5.5;;
68375;SDS011;55318;52.068;5.188;2024-03-17T10:25:12;9.9;;;6.2;;
68375;SDS011;55318;52.068;5.188;2024-03-17T10:26:50;7.8;;;5.4;;
68375;SDS011;55318;52.068;5.188;2024-03-17T10:30:05;8.6;;;5.4;;
68375;SDS011;55318;52.068;5.188;2024-03-17T10:31:54;7.4;;;5.5;;
68375;SDS011;55318;52.068;5.188;2024-03-17T10:33:32;8.4;;;5.9;;
68375;SDS011;55318;52.068;5.188;2024-03-17T10:35:12;9.81;;;5.7;;
68375;SDS011;55318;52.068;5.188;2024-03-17T10:37:05;8.31;;;5.2;;
68375;SDS011;55318;52.068;5.188;2024-03-17T10:40:27;7.0;;;5.0;;
68375;SDS011;55318;52.068;5.188;2024-03-17T10:42:06;9.5;;;5.6;;
68375;SDS011;55318;52.068;5.188;2024-03-17T10:43:43;7.9;;;5.3;;
68375;SDS011;55318;52.068;5.188;2024-03-17T10:46:57;7.6;;;5.2;;
68375;SDS011;55318;52.068;5.188;2024-03-17T10:48:37;8.31;;;5.0;;
68375;SDS011;55318;52.068;5.188;2024-03-17T10:50:16;7.4;;;5.2;;
68375;SDS011;55318;52.068;5.188;2024-03-17T10:51:56;8.6;;;5.7;;
68375;SDS011;55318;52.068;5.188;2024-03-17T10:55:17;8.2;;;5.3;;
68375;SDS011;55318;52.068;5.188;2024-03-17T10:56:57;8.2;;;5.4;;
68375;SDS011;55318;52.068;5.188;2024-03-17T11:00:31;6.9;;;5.0;;
68375;SDS011;55318;52.068;5.188;2024-03-17T11:02:13;7.9;;;5.2;;
68375;SDS011;55318;52.068;5.188;2024-03-17T11:05:35;9.0;;;5.4;;
68375;SDS011;55318;52.068;5.188;2024-03-17T11:07:15;8.71;;;5.11;;
68375;SDS011;55318;52.068;5.188;2024-03-17T11:08:54;8.81;;;5.11;;
68375;SDS011;55318;52.068;5.188;2024-03-17T11:10:32;6.7;;;5.2;;
68375;SDS011;55318;52.068;5.188;2024-03-17T11:14:17;8.2;;;5.3;;
68375;SDS011;55318;52.068;5.188;2024-03-17T11:15:55;7.9;;;5.7;;
68375;SDS011;55318;52.068;5.188;2024-03-17T11:17:33;8.9;;;5.2;;
68375;SDS011;55318;52.068;5.188;2024-03-17T11:19:12;9.9;;;5.6;;
68375;SDS011;55318;52.068;5.188;2024-03-17T11:22:41;8.2;;;5.4;;
68375;SDS011;55318;52.068;5.188;2024-03-17T11:24:18;8.31;;;5.4;;
68375;SDS011;55318;52.068;5.188;2024-03-17T11:25:58;9.21;;;5.7;;
68375;SDS011;55318;52.068;5.188;2024-03-17T11:27:39;9.1;;;5.3;;
68375;SDS011;55318;52.068;5.188;2024-03-17T11:31:27;9.21;;;5.4;;
68375;SDS011;55318;52.068;5.188;2024-03-17T11:33:45;9.31;;;5.6;;
68375;SDS011;55318;52.068;5.188;2024-03-17T11:35:23;7.2;;;5.6;;
68375;SDS011;55318;52.068;5.188;2024-03-17T11:37:00;8.31;;;5.6;;
68375;SDS011;55318;52.068;5.188;2024-03-17T11:38:57;12.1;;;7.6;;
68375;SDS011;55318;52.068;5.188;2024-03-17T11:40:36;9.71;;;5.9;;
68375;SDS011;55318;52.068;5.188;2024-03-17T11:42:12;12.6;;;6.7;;
68375;SDS011;55318;52.068;5.188;2024-03-17T11:45:26;9.1;;;5.2;;
68375;SDS011;55318;52.068;5.188;2024-03-17T11:47:04;6.0;;;5.0;;
68375;SDS011;55318;52.068;5.188;2024-03-17T11:48:42;8.5;;;5.5;;
68375;SDS011;55318;52.068;5.188;2024-03-17T11:50:19;8.5;;;5.5;;
68375;SDS011;55318;52.068;5.188;2024-03-17T11:53:34;9.81;;;6.2;;
68375;SDS011;55318;52.068;5.188;2024-03-17T11:55:15;8.71;;;5.4;;
68375;SDS011;55318;52.068;5.188;2024-03-17T11:56:54;9.5;;;5.6;;
68375;SDS011;55318;52.068;5.188;2024-03-17T11:58:36;8.31;;;5.8;;
68375;SDS011;55318;52.068;5.188;2024-03-17T12:01:56;9.0;;;5.9;;
68375;SDS011;55318;52.068;5.188;2024-03-17T12:03:34;9.6;;;6.3;;
68375;SDS011;55318;52.068;5.188;2024-03-17T12:05:11;8.5;;;5.9;;
68375;SDS011;55318;52.068;5.188;2024-03-17T12:08:26;8.5;;;5.3;;
68375;SDS011;55318;52.068;5.188;2024-03-17T12:10:02;8.1;;;5.8;;
68375;SDS011;55318;52.068;5.188;2024-03-17T12:11:39;8.2;;;5.9;;
68375;SDS011;55318;52.068;5.188;2024-03-17T12:13:16;7.7;;;5.3;;
68375;SDS011;55318;52.068;5.188;2024-03-17T12:16:28;8.5;;;5.7;;
68375;SDS011;55318;52.068;5.188;2024-03-17T12:18:05;8.81;;;5.5;;
68375;SDS011;55318;52.068;5.188;2024-03-17T12:19:56;8.9;;;6.2;;
68375;SDS011;55318;52.068;5.188;2024-03-17T12:23:11;8.31;;;5.5;;
68375;SDS011;55318;52.068;5.188;2024-03-17T12:24:50;8.71;;;5.8;;
68375;SDS011;55318;52.068;5.188;2024-03-17T12:26:28;9.21;;;6.0;;
68375;SDS011;55318;52.068;5.188;2024-03-17T12:28:10;7.1;;;5.4;;
68375;SDS011;55318;52.068;5.188;2024-03-17T12:31:30;9.0;;;5.6;;
68375;SDS011;55318;52.068;5.188;2024-03-17T12:33:07;10.5;;;6.4;;
68375;SDS011;55318;52.068;5.188;2024-03-17T12:34:49;7.0;;;5.4;;
68375;SDS011;55318;52.068;5.188;2024-03-17T12:36:27;11.2;;;6.4;;
68375;SDS011;55318;52.068;5.188;2024-03-17T12:39:56;6.7;;;5.6;;
68375;SDS011;55318;52.068;5.188;2024-03-17T12:41:33;11.4;;;6.0;;
68375;SDS011;55318;52.068;5.188;2024-03-17T12:43:12;8.31;;;5.6;;
68375;SDS011;55318;52.068;5.188;2024-03-17T12:44:49;9.0;;;5.6;;
68375;SDS011;55318;52.068;5.188;2024-03-17T12:48:03;9.4;;;5.9;;
68375;SDS011;55318;52.068;5.188;2024-03-17T12:49:48;7.8;;;5.7;;
68375;SDS011;55318;52.068;5.188;2024-03-17T12:51:26;10.9;;;6.5;;
68375;SDS011;55318;52.068;5.188;2024-03-17T12:53:03;7.3;;;5.3;;
68375;SDS011;55318;52.068;5.188;2024-03-17T12:56:22;7.1;;;5.8;;